createdAt,value
2019-05-22T00:01:57.124Z,18.20
2019-05-22T00:04:31.861Z,18.20
2019-05-22T00:07:05.666Z,18.10
2019-05-22T00:09:37.941Z,18.10
2019-05-22T00:12:09.526Z,18.10
2019-05-22T00:14:43.613Z,18.10
2019-05-22T00:17:14.005Z,18.10
2019-05-22T00:19:45.089Z,18.20
2019-05-22T00:22:20.320Z,18.20
2019-05-22T00:24:57.454Z,18.20
2019-05-22T00:27:35.056Z,18.20
2019-05-22T00:30:09.711Z,18.10
2019-05-22T00:32:42.975Z,18.10
2019-05-22T00:35:17.820Z,18.10
2019-05-22T00:37:48.482Z,18.00
2019-05-22T01:05:36.947Z,18.00
2019-05-22T01:08:06.753Z,17.70
2019-05-22T01:10:38.436Z,17.70
2019-05-22T01:13:07.961Z,17.70
2019-05-22T01:15:37.468Z,17.70
2019-05-22T01:18:10.364Z,17.60
2019-05-22T01:20:41.715Z,17.60
2019-05-22T01:23:13.529Z,17.60
2019-05-22T01:25:43.567Z,17.60
2019-05-22T01:28:14.405Z,17.60
2019-05-22T01:31:05.220Z,17.60
2019-05-22T01:33:36.163Z,17.60
2019-05-22T01:36:07.502Z,17.60
2019-05-22T01:38:38.929Z,17.60
2019-05-22T01:41:19.284Z,17.60
2019-05-22T01:43:50.838Z,17.50
2019-05-22T01:46:21.542Z,17.50
2019-05-22T01:48:54.216Z,17.50
2019-05-22T01:51:23.672Z,17.50
2019-05-22T01:53:56.333Z,17.40
2019-05-22T01:56:27.574Z,17.50
2019-05-22T01:58:58.529Z,17.50
2019-05-22T02:01:28.125Z,17.50
2019-05-22T02:03:59.423Z,17.50
2019-05-22T02:06:29.353Z,17.50
2019-05-22T02:09:05.718Z,17.60
2019-05-22T02:11:36.279Z,17.60
2019-05-22T02:14:13.353Z,17.60
2019-05-22T02:16:56.745Z,17.60
2019-05-22T02:19:21.094Z,17.70
2019-05-22T02:21:52.220Z,17.80
2019-05-22T02:24:23.342Z,17.90
2019-05-22T02:26:53.281Z,18.00
2019-05-22T02:29:24.010Z,18.20
2019-05-22T02:31:55.797Z,18.30
2019-05-22T02:34:26.611Z,18.40
2019-05-22T02:36:57.998Z,18.60
2019-05-22T02:39:31.389Z,18.70
2019-05-22T02:42:08.698Z,18.90
2019-05-22T02:44:42.971Z,18.90
2019-05-22T02:47:19.784Z,19.10
2019-05-22T02:49:46.646Z,19.20
2019-05-22T02:52:17.022Z,19.20
2019-05-22T02:54:47.553Z,19.30
2019-05-22T02:57:16.997Z,19.40
2019-05-22T02:59:47.210Z,19.50
2019-05-22T03:02:17.099Z,19.60
2019-05-22T03:05:03.971Z,19.70
2019-05-22T03:07:34.816Z,19.80
2019-05-22T03:10:06.373Z,19.90
2019-05-22T03:12:36.586Z,20.00
2019-05-22T03:15:11.505Z,20.00
2019-05-22T03:17:43.369Z,20.10
2019-05-22T03:20:19.134Z,20.20
2019-05-22T03:22:57.555Z,20.40
2019-05-22T03:25:28.349Z,20.50
2019-05-22T03:27:58.003Z,20.40
2019-05-22T03:30:33.963Z,20.70
2019-05-22T03:33:08.310Z,20.80
2019-05-22T03:35:41.173Z,20.70
2019-05-22T03:38:10.930Z,20.60
2019-05-22T03:40:41.232Z,20.40
2019-05-22T03:43:24.144Z,20.40
2019-05-22T03:45:56.630Z,20.30
2019-05-22T03:48:27.863Z,20.20
2019-05-22T03:51:09.651Z,20.20
2019-05-22T03:53:40.334Z,20.30
2019-05-22T03:56:10.584Z,20.40
2019-05-22T03:58:41.751Z,20.60
2019-05-22T04:01:15.757Z,20.80
2019-05-22T04:03:45.982Z,21.10
2019-05-22T04:06:20.168Z,21.30
2019-05-22T04:08:50.199Z,21.40
2019-05-22T04:11:19.245Z,21.40
2019-05-22T04:13:49.346Z,21.60
2019-05-22T04:16:23.388Z,21.70
2019-05-22T04:18:53.768Z,21.80
2019-05-22T04:21:23.892Z,21.80
2019-05-22T04:23:56.062Z,21.90
2019-05-22T04:26:26.857Z,21.80
2019-05-22T04:28:56.217Z,21.80
2019-05-22T04:31:44.961Z,21.60
2019-05-22T04:34:14.508Z,21.80
2019-05-22T04:36:44.279Z,22.00
2019-05-22T04:39:22.453Z,22.20
2019-05-22T04:41:57.417Z,22.40
2019-05-22T04:44:26.868Z,22.50
2019-05-22T04:46:56.809Z,22.60
2019-05-22T04:49:26.332Z,22.50
2019-05-22T04:51:56.041Z,22.50
2019-05-22T04:54:25.662Z,22.30
2019-05-22T04:56:55.867Z,22.10
2019-05-22T04:59:25.701Z,22.00
2019-05-22T05:01:55.349Z,21.80
2019-05-22T05:04:26.166Z,21.40
2019-05-22T05:06:56.422Z,21.20
2019-05-22T05:09:26.747Z,21.00
2019-05-22T05:12:00.187Z,20.90
2019-05-22T05:14:29.444Z,20.80
2019-05-22T05:16:59.043Z,20.60
2019-05-22T05:19:28.663Z,20.60
2019-05-22T05:21:57.970Z,20.60
2019-05-22T05:24:28.213Z,20.60
2019-05-22T05:26:58.593Z,20.40
2019-05-22T05:29:31.442Z,20.20
2019-05-22T05:32:01.564Z,20.00
2019-05-22T05:34:45.401Z,19.90
2019-05-22T05:37:15.884Z,19.90
2019-05-22T05:39:48.402Z,19.80
2019-05-22T05:42:20.137Z,19.70
2019-05-22T05:44:49.253Z,19.60
2019-05-22T05:47:23.211Z,19.60
2019-05-22T05:49:56.240Z,19.60
2019-05-22T05:52:42.390Z,19.60
2019-05-22T05:55:19.646Z,19.60
2019-05-22T05:57:57.848Z,19.60
2019-05-22T06:00:44.563Z,19.60
2019-05-22T06:03:32.075Z,19.60
2019-05-22T06:06:13.455Z,19.60
2019-05-22T06:08:47.941Z,19.60
2019-05-22T06:11:31.037Z,19.50
2019-05-22T06:14:01.097Z,19.50
2019-05-22T06:16:51.432Z,19.60
2019-05-22T06:19:24.097Z,19.60
2019-05-22T06:21:54.834Z,19.70
2019-05-22T06:24:34.156Z,19.60
2019-05-22T06:27:17.179Z,19.80
2019-05-22T06:30:11.789Z,19.80
2019-05-22T06:33:04.226Z,19.90
2019-05-22T06:35:36.340Z,20.10
2019-05-22T06:38:23.498Z,20.20
2019-05-22T06:40:55.363Z,20.30
2019-05-22T06:43:30.472Z,20.50
2019-05-22T06:45:59.716Z,20.70
2019-05-22T06:48:29.001Z,20.80
2019-05-22T06:50:59.622Z,20.90
2019-05-22T06:53:32.606Z,20.90
2019-05-22T06:56:01.701Z,20.90
2019-05-22T06:58:31.412Z,20.80
2019-05-22T07:01:00.649Z,20.70
2019-05-22T07:03:30.419Z,20.70
2019-05-22T07:05:59.618Z,20.70
2019-05-22T07:08:34.912Z,20.60
2019-05-22T07:11:04.862Z,20.50
2019-05-22T07:13:37.187Z,20.40
2019-05-22T07:16:08.697Z,20.20
2019-05-22T07:18:42.817Z,20.20
2019-05-22T07:21:15.718Z,20.30
2019-05-22T07:23:46.222Z,20.30
2019-05-22T07:26:15.928Z,20.40
2019-05-22T07:28:50.719Z,20.60
2019-05-22T07:31:20.789Z,20.70
2019-05-22T07:33:53.949Z,21.10
2019-05-22T07:36:24.375Z,21.50
2019-05-22T07:38:53.595Z,21.70
2019-05-22T07:41:26.032Z,22.10
2019-05-22T07:43:58.510Z,22.30
2019-05-22T07:46:31.223Z,23.10
2019-05-22T07:49:00.825Z,25.20
2019-05-22T07:51:48.464Z,27.80
2019-05-22T07:54:07.243Z,29.70
2019-05-22T07:56:38.411Z,31.80
2019-05-22T07:59:11.544Z,33.00
2019-05-22T08:01:41.246Z,33.40
2019-05-22T08:04:10.861Z,32.80
2019-05-22T08:06:43.373Z,32.70
2019-05-22T08:09:19.195Z,33.90
2019-05-22T08:11:48.711Z,34.50
2019-05-22T08:14:22.945Z,34.00
2019-05-22T08:16:52.429Z,32.70
2019-05-22T08:19:22.117Z,31.10
2019-05-22T08:22:06.264Z,30.20
2019-05-22T08:24:23.582Z,29.30
2019-05-22T08:26:55.211Z,28.50
2019-05-22T08:29:24.270Z,28.10
2019-05-22T08:31:53.839Z,27.50
2019-05-22T08:34:24.482Z,27.30
2019-05-22T08:36:54.295Z,27.30
2019-05-22T08:39:24.425Z,27.30
2019-05-22T08:41:54.285Z,27.80
2019-05-22T08:44:29.562Z,30.30
2019-05-22T08:46:59.087Z,30.90
2019-05-22T08:49:28.664Z,32.20
2019-05-22T08:52:14.889Z,33.40
2019-05-22T08:54:46.906Z,33.60
2019-05-22T08:57:18.067Z,34.10
2019-05-22T08:59:48.799Z,34.30
2019-05-22T09:05:09.618Z,33.10
2019-05-22T09:07:38.155Z,32.00
2019-05-22T09:10:13.652Z,30.50
2019-05-22T09:12:43.285Z,29.70
2019-05-22T09:15:21.489Z,28.90
2019-05-22T09:17:50.564Z,28.40
2019-05-22T09:20:22.780Z,27.80
2019-05-22T09:22:54.278Z,27.40
2019-05-22T09:25:26.481Z,27.20
2019-05-22T09:27:55.550Z,27.00
2019-05-22T09:30:25.193Z,27.10
2019-05-22T09:32:58.378Z,27.00
2019-05-22T09:35:27.438Z,27.00
2019-05-22T09:37:57.361Z,27.00
2019-05-22T09:40:26.747Z,27.10
2019-05-22T09:42:55.865Z,27.10
2019-05-22T09:45:26.183Z,27.10
2019-05-22T09:47:58.091Z,27.20
2019-05-22T09:50:29.893Z,27.40
2019-05-22T09:52:59.715Z,27.40
2019-05-22T09:55:29.049Z,27.40
2019-05-22T09:57:58.273Z,27.50
2019-05-22T10:00:28.725Z,27.70
2019-05-22T10:03:00.588Z,27.90
2019-05-22T10:05:31.438Z,28.10
2019-05-22T10:08:02.216Z,28.00
2019-05-22T10:10:32.384Z,28.30
2019-05-22T10:13:05.990Z,28.70
2019-05-22T10:15:37.868Z,28.70
2019-05-22T10:18:08.781Z,28.80
2019-05-22T10:20:39.940Z,29.10
2019-05-22T10:23:15.478Z,29.00
2019-05-22T10:25:44.555Z,28.70
2019-05-22T10:28:14.081Z,28.50
2019-05-22T10:30:43.288Z,28.40
2019-05-22T10:33:12.662Z,28.40
2019-05-22T10:35:42.430Z,28.30
2019-05-22T10:38:11.879Z,28.40
2019-05-22T10:40:47.751Z,28.50
2019-05-22T10:43:20.920Z,28.70
2019-05-22T10:45:50.216Z,28.80
2019-05-22T10:48:23.108Z,28.80
2019-05-22T10:50:52.200Z,28.70
2019-05-22T10:53:33.065Z,28.50
2019-05-22T10:55:57.526Z,28.40
2019-05-22T10:58:31.668Z,28.40
2019-05-22T11:01:00.777Z,28.30
2019-05-22T11:03:30.121Z,28.30
2019-05-22T11:06:07.072Z,28.10
2019-05-22T11:08:34.313Z,28.10
2019-05-22T11:11:02.528Z,28.20
2019-05-22T11:13:34.164Z,28.20
2019-05-22T11:16:03.841Z,28.00
2019-05-22T11:18:38.850Z,27.90
2019-05-22T11:21:09.811Z,27.80
2019-05-22T11:23:51.462Z,27.80
2019-05-22T11:26:13.834Z,27.80
2019-05-22T11:28:43.566Z,27.70
2019-05-22T11:31:19.495Z,27.70
2019-05-22T11:33:48.621Z,27.60
2019-05-22T11:36:21.747Z,27.60
2019-05-22T11:38:51.108Z,27.70
2019-05-22T11:41:27.103Z,27.80
2019-05-22T11:43:52.789Z,27.80
2019-05-22T11:46:22.051Z,27.70
2019-05-22T11:48:51.866Z,27.40
2019-05-22T11:51:22.099Z,27.30
2019-05-22T11:54:07.974Z,27.60
2019-05-22T11:56:22.833Z,27.80
2019-05-22T11:58:52.030Z,28.20
2019-05-22T12:01:29.462Z,28.40
2019-05-22T12:04:02.843Z,28.60
2019-05-22T12:06:35.141Z,28.70
2019-05-22T12:09:07.475Z,28.60
2019-05-22T12:11:42.926Z,28.50
2019-05-22T12:14:11.821Z,28.20
2019-05-22T12:16:44.354Z,28.20
2019-05-22T12:19:17.617Z,28.00
2019-05-22T12:21:47.023Z,27.70
2019-05-22T12:24:26.961Z,27.50
2019-05-22T12:26:50.543Z,27.40
2019-05-22T12:29:26.025Z,27.40
2019-05-22T12:31:59.268Z,27.20
2019-05-22T12:34:31.075Z,27.00
2019-05-22T12:37:01.321Z,26.90
2019-05-22T12:39:31.621Z,26.80
2019-05-22T12:42:01.590Z,26.60
2019-05-22T12:44:34.066Z,26.50
2019-05-22T12:47:03.815Z,26.20
2019-05-22T12:49:33.116Z,26.10
2019-05-22T12:52:06.279Z,26.00
2019-05-22T12:54:45.858Z,25.90
2019-05-22T12:57:07.163Z,25.80
2019-05-22T12:59:37.086Z,25.70
2019-05-22T13:02:09.722Z,25.80
2019-05-22T13:04:39.239Z,26.00
2019-05-22T13:07:08.869Z,26.30
2019-05-22T13:09:38.697Z,26.70
2019-05-22T13:12:12.798Z,27.00
2019-05-22T13:14:42.634Z,27.20
2019-05-22T13:17:14.069Z,27.40
2019-05-22T13:19:51.872Z,27.60
2019-05-22T13:22:24.838Z,28.00
2019-05-22T13:24:57.514Z,27.80
2019-05-22T13:27:29.656Z,27.90
2019-05-22T13:30:11.576Z,28.10
2019-05-22T13:32:46.516Z,28.00
2019-05-22T13:35:21.686Z,28.00
2019-05-22T13:37:50.847Z,28.10
2019-05-22T13:40:27.740Z,28.00
2019-05-22T13:42:55.180Z,28.10
2019-05-22T13:45:29.159Z,28.10
2019-05-22T13:48:01.212Z,28.10
2019-05-22T13:50:31.788Z,28.20
2019-05-22T13:53:03.251Z,28.40
2019-05-22T13:55:33.573Z,28.60
2019-05-22T13:58:04.201Z,28.80
2019-05-22T14:00:33.491Z,28.90
2019-05-22T14:03:05.958Z,28.90
2019-05-22T14:05:36.899Z,28.70
2019-05-22T14:08:11.968Z,28.50
2019-05-22T14:10:41.577Z,28.50
2019-05-22T14:13:11.794Z,28.10
2019-05-22T14:15:54.926Z,27.80
2019-05-22T14:18:21.282Z,27.40
2019-05-22T14:20:52.403Z,27.10
2019-05-22T14:23:29.517Z,27.00
2019-05-22T14:25:58.839Z,26.80
2019-05-22T14:28:32.401Z,26.90
2019-05-22T14:31:01.541Z,26.90
2019-05-22T14:33:33.087Z,26.90
2019-05-22T14:36:05.972Z,26.80
2019-05-22T14:38:37.836Z,26.90
2019-05-22T14:41:10.434Z,26.90
2019-05-22T14:43:39.614Z,27.00
2019-05-22T14:46:08.932Z,26.80
2019-05-22T14:48:44.221Z,26.80
2019-05-22T14:51:16.534Z,26.60
2019-05-22T14:53:46.278Z,26.60
2019-05-22T14:56:17.906Z,26.60
2019-05-22T15:01:20.190Z,26.50
2019-05-22T15:03:49.683Z,26.20
2019-05-22T15:06:22.283Z,26.30
2019-05-22T15:08:59.254Z,26.10
2019-05-22T15:11:35.718Z,26.10
2019-05-22T15:14:19.291Z,26.10
2019-05-22T15:16:44.846Z,26.10
2019-05-22T15:19:18.933Z,26.00
2019-05-22T15:21:49.082Z,25.90
2019-05-22T15:24:20.433Z,25.80
2019-05-22T15:26:50.041Z,25.80
2019-05-22T15:29:19.737Z,26.00
2019-05-22T15:31:55.814Z,26.00
2019-05-22T15:34:27.754Z,26.00
2019-05-22T15:36:58.037Z,25.90
2019-05-22T15:39:34.396Z,25.80
2019-05-22T15:42:09.796Z,25.70
2019-05-22T15:44:41.807Z,25.70
2019-05-22T15:47:14.560Z,25.50
2019-05-22T15:49:49.771Z,25.40
2019-05-22T15:52:21.452Z,25.20
2019-05-22T15:54:51.702Z,25.00
2019-05-22T15:57:23.347Z,24.80
2019-05-22T15:59:54.267Z,24.80
2019-05-22T16:02:25.837Z,24.60
2019-05-22T16:04:57.934Z,24.50
2019-05-22T16:07:29.613Z,24.50
2019-05-22T16:09:59.222Z,24.50
2019-05-22T16:12:29.144Z,24.50
2019-05-22T16:15:01.402Z,24.50
2019-05-22T16:17:35.421Z,24.50
2019-05-22T16:20:06.259Z,24.60
2019-05-22T16:22:37.376Z,24.60
2019-05-22T16:25:13.559Z,24.60
2019-05-22T16:27:45.253Z,24.60
2019-05-22T16:30:21.267Z,24.70
2019-05-22T16:32:54.866Z,24.70
2019-05-22T16:35:24.685Z,24.60
2019-05-22T16:37:54.696Z,24.70
2019-05-22T16:40:24.506Z,24.70
2019-05-22T16:42:56.575Z,24.80
2019-05-22T16:45:38.827Z,24.80
2019-05-22T16:48:27.274Z,24.80
2019-05-22T16:50:43.318Z,24.80
2019-05-22T16:53:13.953Z,24.90
2019-05-22T16:55:47.826Z,24.90
2019-05-22T16:58:19.616Z,24.90
2019-05-22T17:00:51.903Z,24.90
2019-05-22T17:03:25.122Z,24.90
2019-05-22T17:05:54.867Z,24.90
2019-05-22T17:08:24.291Z,25.00
2019-05-22T17:10:57.512Z,25.00
2019-05-22T17:13:33.552Z,24.90
2019-05-22T17:16:06.518Z,25.00
2019-05-22T17:18:47.652Z,24.90
2019-05-22T17:21:14.169Z,24.90
2019-05-22T17:23:45.524Z,24.80
2019-05-22T17:26:15.294Z,24.80
2019-05-22T17:28:50.159Z,24.80
2019-05-22T17:31:19.427Z,24.80
2019-05-22T17:33:48.716Z,24.60
2019-05-22T17:36:22.708Z,24.60
2019-05-22T17:39:07.438Z,24.50
2019-05-22T17:41:40.003Z,24.40
2019-05-22T17:44:12.650Z,24.20
2019-05-22T17:46:45.800Z,24.20
2019-05-22T17:49:27.409Z,24.10
2019-05-22T17:51:56.821Z,23.90
2019-05-22T17:54:26.233Z,23.80
2019-05-22T17:56:56.044Z,23.70
2019-05-22T17:59:25.438Z,23.60
2019-05-22T18:01:55.560Z,23.50
2019-05-22T18:04:24.964Z,23.40
2019-05-22T18:06:56.614Z,23.30
2019-05-22T18:09:28.581Z,23.20
2019-05-22T18:11:57.773Z,23.10
2019-05-22T18:14:28.506Z,23.00
2019-05-22T18:16:58.934Z,22.90
2019-05-22T18:19:29.221Z,22.70
2019-05-22T18:21:59.494Z,22.60
2019-05-22T18:24:33.898Z,22.60
2019-05-22T18:27:03.199Z,22.50
2019-05-22T18:29:36.190Z,22.30
2019-05-22T18:32:09.196Z,22.30
2019-05-22T18:44:44.194Z,22.20
2019-05-22T18:47:18.074Z,21.80
2019-05-22T18:49:49.586Z,21.70
2019-05-22T18:52:40.561Z,21.60
2019-05-22T18:55:06.092Z,21.50
2019-05-22T18:57:49.681Z,21.40
2019-05-22T19:00:24.077Z,21.30
2019-05-22T19:02:57.271Z,21.20
2019-05-22T19:10:27.141Z,21.20
2019-05-22T19:12:56.437Z,21.00
2019-05-22T19:15:30.249Z,21.00
2019-05-22T19:18:00.193Z,20.90
2019-05-22T19:20:29.252Z,20.90
2019-05-22T19:23:02.161Z,20.90
2019-05-22T19:25:31.377Z,20.80
2019-05-22T19:30:29.419Z,20.80
2019-05-22T19:32:58.513Z,20.70
2019-05-22T19:35:28.735Z,20.60
2019-05-22T19:38:05.178Z,20.60
2019-05-22T19:40:35.125Z,20.50
2019-05-22T19:43:09.062Z,20.50
2019-05-22T19:45:44.277Z,20.40
2019-05-22T19:48:13.371Z,20.30
2019-05-22T19:50:42.864Z,20.30
2019-05-22T19:53:18.574Z,20.20
2019-05-22T19:55:49.943Z,20.10
2019-05-22T19:58:22.019Z,20.10
2019-05-22T20:00:51.827Z,20.00
2019-05-22T20:13:29.316Z,19.90
2019-05-22T20:16:02.989Z,19.70
2019-05-22T20:18:37.325Z,19.60
2019-05-22T20:21:09.649Z,19.60
2019-05-22T20:23:44.324Z,19.50
2019-05-22T20:26:17.308Z,19.50
2019-05-22T20:28:47.660Z,19.40
2019-05-22T20:31:17.229Z,19.40
2019-05-22T20:33:46.773Z,19.40
2019-05-22T20:36:16.751Z,19.40
2019-05-22T20:38:47.170Z,19.40
2019-05-22T20:41:16.489Z,19.40
2019-05-22T20:43:52.271Z,19.40
2019-05-22T20:46:22.193Z,19.40
2019-05-22T20:48:51.461Z,19.40
2019-05-22T20:56:21.851Z,19.30
2019-05-22T20:58:57.243Z,19.10
2019-05-22T21:01:29.137Z,19.00
2019-05-22T21:04:01.589Z,18.90
2019-05-22T21:06:33.491Z,18.90
2019-05-22T21:09:05.418Z,18.80
2019-05-22T21:11:36.861Z,18.80
2019-05-22T21:14:13.857Z,18.70
2019-05-22T21:16:43.977Z,18.60
2019-05-22T21:19:13.988Z,18.60
2019-05-22T21:21:44.042Z,18.50
2019-05-22T21:24:14.356Z,18.40
2019-05-22T21:26:44.309Z,18.40
2019-05-22T21:29:14.152Z,18.40
2019-05-22T21:31:47.672Z,18.40
2019-05-22T21:34:15.783Z,18.30
2019-05-22T21:36:45.101Z,18.30
2019-05-22T21:39:15.147Z,18.20
2019-05-22T21:41:45.052Z,18.20
2019-05-22T21:44:16.805Z,18.20
2019-05-22T21:46:51.180Z,18.10
2019-05-22T21:49:23.501Z,18.10
2019-05-22T21:52:00.867Z,18.10
2019-05-22T21:54:43.613Z,18.10
2019-05-22T21:57:15.578Z,18.00
2019-05-22T21:59:45.766Z,17.90
2019-05-22T22:02:19.366Z,17.90
2019-05-22T22:04:48.883Z,17.80
2019-05-22T22:07:18.592Z,17.70
2019-05-22T22:09:49.420Z,17.70
2019-05-22T22:12:22.305Z,17.70
2019-05-22T22:14:55.185Z,17.60
2019-05-22T22:17:31.123Z,17.60
2019-05-22T22:20:00.237Z,17.60
2019-05-22T22:22:30.970Z,17.60
2019-05-22T22:25:05.592Z,17.50
2019-05-22T22:27:38.480Z,17.50
2019-05-22T22:30:18.620Z,17.50
2019-05-22T22:32:50.932Z,17.50
2019-05-22T22:35:21.059Z,17.50
2019-05-22T22:37:51.290Z,17.50
2019-05-22T22:40:27.445Z,17.50
2019-05-22T22:42:56.904Z,17.50
2019-05-22T22:45:30.303Z,17.50
2019-05-22T22:48:04.004Z,17.50
2019-05-22T22:50:33.104Z,17.50
2019-05-22T22:53:04.829Z,17.50
2019-05-22T22:55:34.676Z,17.40
2019-05-22T22:58:18.819Z,17.40
2019-05-22T23:00:49.665Z,17.40
2019-05-22T23:28:40.702Z,17.30
2019-05-22T23:31:10.125Z,16.70
2019-05-22T23:33:39.425Z,16.70
2019-05-22T23:36:09.107Z,16.70
2019-05-22T23:38:38.736Z,16.60
2019-05-22T23:41:09.528Z,16.50
2019-05-22T23:43:41.178Z,16.50
2019-05-22T23:46:13.805Z,16.40
2019-05-22T23:48:44.141Z,16.40
2019-05-22T23:51:13.234Z,16.40
2019-05-22T23:53:43.139Z,16.40
2019-05-22T23:56:12.706Z,16.30
2019-05-22T23:58:52.659Z,16.30
